Aérodrome :
LOGIN :

S'inscrire | Disclaimer

   EN    FR    IT 

 










Légende :    VFR   VFR Marginal   IFR   IFR Intensif   IFR Très Intensif
Visi : 
Plafond : 
>= 8 km
>= 3000ft
5 à 8 km
1000 à 3000 ft
1500m à 5 km
500 à 1000 ft
800 à 1500m
200 à 500 ft
< 800m
< 200 ft
Symboles :   Orages  Brouillard  Fortes neiges  Fortes précipitations  Vent > 20 kt
SIGMETs :   Divers  Orages  Givrage  Turbulence  Onde Orograph.  Cendres Volcan.






- Altitude de l'aérodrome : 1036 ft
- Code IATA : ERF


EDDE - Erfurt

DERNIER METAR :
  • 181220Z AUTO VRB04KT 9999 FEW044 24/14 Q1024 NOSIG

METARs EXPIRÉS :
  • 181150Z AUTO VRB03KT 9999 FEW041 24/14 Q1024 NOSIG
  • 181120Z AUTO 31004KT 250V360 CAVOK 24/14 Q1024 NOSIG
  • 181050Z AUTO VRB03KT CAVOK 23/14 Q1024 NOSIG
  • 181020Z AUTO 30004KT 220V010 9999 FEW035 23/14 Q1024 NOSIG
  • 180950Z AUTO VRB05KT 9999 FEW033 23/15 Q1025 NOSIG

TAF TAF EDDE
Valide du 18 à 12h jusqu'au 19 à 12h UTC


181100Z 1812/1912 VRB03KT CAVOK
BECMG 1821/1824 18009KT



MET'MAP, la Météo Aéronautique d'un coup d'oeil ! - Copyright ORBIFLY Décembre 2007 - Disclaimer

ORBIFLY MET'MAP TEAM :

Programmation & Développement : Alexandra Zaïnal
Sur une idée originale de : Baudouin d'Aumeries
Soutien technique & logistique : Manuel Goepfert
Assistance : Marc-Olivier Méhu

Contact : metmap@orbifly.com




SOURCES & CREDITS :

   NOAA